createdAt,value
2023-01-13T00:01:07.918Z,-1.50
2023-01-13T00:03:35.781Z,-1.47
2023-01-13T00:06:03.713Z,-1.45
2023-01-13T00:08:31.307Z,-1.46
2023-01-13T00:10:58.721Z,-1.45
2023-01-13T00:13:28.397Z,-1.43
2023-01-13T00:16:05.091Z,-1.42
2023-01-13T00:18:33.892Z,-1.40
2023-01-13T00:21:16.750Z,-1.41
2023-01-13T00:23:44.767Z,-1.42
2023-01-13T00:26:15.824Z,-1.42
2023-01-13T00:28:43.223Z,-1.43
2023-01-13T00:31:12.464Z,-1.39
2023-01-13T00:33:40.193Z,-1.36
2023-01-13T00:36:10.258Z,-1.37
2023-01-13T00:38:38.306Z,-1.37
2023-01-13T00:41:09.025Z,-1.36
2023-01-13T00:43:36.986Z,-1.33
2023-01-13T00:46:06.670Z,-1.32
2023-01-13T00:48:34.269Z,-1.32
2023-01-13T00:51:10.747Z,-1.33
2023-01-13T00:53:40.950Z,-1.34
2023-01-13T00:56:13.924Z,-1.36
2023-01-13T00:58:42.192Z,-1.38
2023-01-13T01:01:21.295Z,-1.38
2023-01-13T01:03:49.957Z,-1.38
2023-01-13T01:06:21.419Z,-1.39
2023-01-13T01:08:48.960Z,-1.39
2023-01-13T01:11:26.173Z,-1.38
2023-01-13T01:13:55.868Z,-1.38
2023-01-13T01:16:26.547Z,-1.38
2023-01-13T01:18:54.475Z,-1.40
2023-01-13T01:21:23.888Z,-1.44
2023-01-13T01:23:51.444Z,-1.45
2023-01-13T01:26:21.706Z,-1.45
2023-01-13T01:28:49.145Z,-1.48
2023-01-13T01:31:27.715Z,-1.51
2023-01-13T01:33:54.980Z,-1.52
2023-01-13T01:36:26.127Z,-1.54
2023-01-13T01:38:56.327Z,-1.55
2023-01-13T01:41:26.755Z,-1.56
2023-01-13T01:44:07.522Z,-1.58
2023-01-13T01:46:41.160Z,-1.61
2023-01-13T01:49:29.085Z,-1.66
2023-01-13T01:52:02.856Z,-1.71
2023-01-13T01:54:47.745Z,-1.73
2023-01-13T01:57:32.263Z,-1.73
2023-01-13T02:00:00.380Z,-1.76
2023-01-13T02:02:29.724Z,-1.77
2023-01-13T02:04:57.927Z,-1.77
2023-01-13T02:07:31.479Z,-1.77
2023-01-13T02:10:03.779Z,-1.76
2023-01-13T02:12:34.012Z,-1.72
2023-01-13T02:15:14.804Z,-1.75
2023-01-13T02:18:32.147Z,-1.75
2023-01-13T02:21:20.489Z,-1.74
2023-01-13T02:24:42.844Z,-1.70
2023-01-13T02:28:01.359Z,-1.71
2023-01-13T02:31:11.624Z,-1.71
2023-01-13T02:33:55.637Z,-1.75
2023-01-13T02:36:49.689Z,-1.76
2023-01-13T02:39:25.660Z,-1.77
2023-01-13T02:42:41.781Z,-1.78
2023-01-13T02:45:31.947Z,-1.82
2023-01-13T02:48:02.670Z,-1.87
2023-01-13T02:50:37.273Z,-1.89
2023-01-13T02:53:17.644Z,-1.91
2023-01-13T02:55:50.432Z,-1.94
2023-01-13T02:58:23.611Z,-1.96
2023-01-13T03:00:51.854Z,-2.02
2023-01-13T03:03:19.228Z,-2.07
2023-01-13T03:05:50.900Z,-2.12
2023-01-13T03:08:56.168Z,-2.13
2023-01-13T03:11:27.163Z,-2.15
2023-01-13T03:14:22.617Z,-2.18
2023-01-13T03:17:31.616Z,-2.21
2023-01-13T03:20:25.320Z,-2.22
2023-01-13T03:23:40.398Z,-2.21
2023-01-13T03:26:35.812Z,-2.16
2023-01-13T03:29:22.457Z,-2.16
2023-01-13T03:32:04.787Z,-2.18
2023-01-13T03:34:46.988Z,-2.16
2023-01-13T03:37:18.804Z,-2.14
2023-01-13T03:39:53.458Z,-2.14
2023-01-13T03:42:25.849Z,-2.15
2023-01-13T03:45:17.323Z,-2.16
2023-01-13T03:47:54.943Z,-2.15
2023-01-13T03:50:29.496Z,-2.15
2023-01-13T03:53:19.246Z,-2.14
2023-01-13T03:56:01.562Z,-2.15
2023-01-13T03:58:35.475Z,-2.19
2023-01-13T04:01:16.616Z,-2.18
2023-01-13T04:04:07.019Z,-2.18
2023-01-13T04:06:53.821Z,-2.18
2023-01-13T04:09:42.317Z,-2.20
2023-01-13T04:12:22.970Z,-2.22
2023-01-13T04:14:51.709Z,-2.22
2023-01-13T04:17:19.313Z,-2.22
2023-01-13T04:19:46.634Z,-2.23
2023-01-13T04:22:13.926Z,-2.23
2023-01-13T04:24:41.018Z,-2.25
2023-01-13T04:27:08.136Z,-2.27
2023-01-13T04:29:35.265Z,-2.27
2023-01-13T04:32:02.439Z,-2.26
2023-01-13T04:34:29.574Z,-2.26
2023-01-13T04:36:56.714Z,-2.28
2023-01-13T04:39:23.889Z,-2.29
2023-01-13T04:42:00.673Z,-2.30
2023-01-13T04:44:29.953Z,-2.27
2023-01-13T04:46:58.196Z,-2.25
2023-01-13T04:49:25.402Z,-2.26
2023-01-13T04:51:52.847Z,-2.25
2023-01-13T04:54:20.192Z,-2.24
2023-01-13T04:56:47.329Z,-2.20
2023-01-13T04:59:14.475Z,-2.17
2023-01-13T05:01:41.663Z,-2.21
2023-01-13T05:04:09.080Z,-2.24
2023-01-13T05:06:36.206Z,-2.28
2023-01-13T05:09:03.461Z,-2.27
2023-01-13T05:11:48.810Z,-2.27
2023-01-13T05:14:34.166Z,-2.26
2023-01-13T05:17:01.517Z,-2.27
2023-01-13T05:19:33.335Z,-2.29
2023-01-13T05:22:19.657Z,-2.32
2023-01-13T05:25:05.611Z,-2.34
2023-01-13T05:27:33.193Z,-2.39
2023-01-13T05:30:00.864Z,-2.41
2023-01-13T05:32:28.001Z,-2.42
2023-01-13T05:34:55.766Z,-2.47
2023-01-13T05:37:25.221Z,-2.50
2023-01-13T05:40:10.589Z,-2.50
2023-01-13T05:42:56.465Z,-2.48
2023-01-13T05:45:24.567Z,-2.48
2023-01-13T05:47:51.841Z,-2.48
2023-01-13T05:50:19.076Z,-2.49
2023-01-13T05:52:46.373Z,-2.52
2023-01-13T05:55:14.190Z,-2.52
2023-01-13T05:57:41.732Z,-2.51
2023-01-13T06:00:09.670Z,-2.50
2023-01-13T06:02:39.966Z,-2.52
2023-01-13T06:05:07.644Z,-2.54
2023-01-13T06:07:34.744Z,-2.58
2023-01-13T06:10:01.909Z,-2.60
2023-01-13T06:12:29.227Z,-2.64
2023-01-13T06:14:56.336Z,-2.66
2023-01-13T06:17:23.435Z,-2.71
2023-01-13T06:19:50.616Z,-2.75
2023-01-13T06:22:23.329Z,-2.76
2023-01-13T06:24:53.334Z,-2.76
2023-01-13T06:27:22.313Z,-2.76
2023-01-13T06:29:49.744Z,-2.75
2023-01-13T06:32:32.030Z,-2.74
2023-01-13T06:35:06.081Z,-2.74
2023-01-13T06:37:34.133Z,-2.70
2023-01-13T06:40:03.822Z,-2.64
2023-01-13T06:42:52.846Z,-2.57
2023-01-13T06:45:21.495Z,-2.45
2023-01-13T06:47:49.179Z,-2.39
2023-01-13T06:50:18.319Z,-2.35
2023-01-13T06:52:45.429Z,-2.29
2023-01-13T06:55:12.680Z,-2.22
2023-01-13T06:57:57.160Z,-2.15
2023-01-13T07:00:25.078Z,-2.05
2023-01-13T07:02:52.548Z,-2.06
2023-01-13T07:05:20.751Z,-2.07
2023-01-13T07:07:47.890Z,-2.09
2023-01-13T07:10:21.600Z,-2.11
2023-01-13T07:13:08.139Z,-2.09
2023-01-13T07:15:35.818Z,-2.12
2023-01-13T07:18:03.107Z,-2.12
2023-01-13T07:20:31.047Z,-2.10
2023-01-13T07:22:58.274Z,-2.08
2023-01-13T07:25:25.724Z,-2.05
2023-01-13T07:27:52.780Z,-1.99
2023-01-13T07:30:20.111Z,-1.95
2023-01-13T07:32:47.418Z,-1.89
2023-01-13T07:35:14.660Z,-1.83
2023-01-13T07:37:41.890Z,-1.81
2023-01-13T07:40:10.069Z,-1.78
2023-01-13T07:42:56.667Z,-1.73
2023-01-13T07:45:23.800Z,-1.65
2023-01-13T07:47:53.176Z,-1.54
2023-01-13T07:50:21.115Z,-1.37
2023-01-13T07:52:48.140Z,-1.21
2023-01-13T07:55:15.311Z,-1.09
2023-01-13T07:57:42.494Z,-0.98
2023-01-13T08:00:12.774Z,-0.88
2023-01-13T08:02:40.584Z,-0.81
2023-01-13T08:05:08.877Z,-0.76
2023-01-13T08:07:36.147Z,-0.73
2023-01-13T08:10:03.809Z,-0.67
2023-01-13T08:12:51.998Z,-0.61
2023-01-13T08:15:23.050Z,-0.49
2023-01-13T08:17:50.242Z,-0.42
2023-01-13T08:20:17.812Z,-0.35
2023-01-13T08:22:44.970Z,-0.27
2023-01-13T08:25:12.302Z,-0.23
2023-01-13T08:27:39.626Z,-0.27
2023-01-13T08:30:08.394Z,-0.28
2023-01-13T08:32:35.586Z,-0.21
2023-01-13T08:35:02.729Z,-0.11
2023-01-13T08:37:29.880Z,-0.04
2023-01-13T08:39:57.067Z,0.04
2023-01-13T08:42:26.181Z,0.16
2023-01-13T08:44:54.275Z,0.40
2023-01-13T08:47:22.259Z,0.68
2023-01-13T08:49:51.753Z,0.85
2023-01-13T08:52:19.586Z,1.06
2023-01-13T08:54:46.998Z,1.21
2023-01-13T08:57:14.975Z,1.34
2023-01-13T08:59:42.918Z,1.43
2023-01-13T09:02:18.716Z,1.52
2023-01-13T09:04:46.840Z,1.64
2023-01-13T09:07:14.817Z,1.78
2023-01-13T09:09:42.233Z,1.85
2023-01-13T09:12:35.959Z,1.95
2023-01-13T09:15:05.659Z,1.96
2023-01-13T09:17:32.945Z,2.09
2023-01-13T09:20:00.254Z,2.15
2023-01-13T09:22:27.413Z,2.15
2023-01-13T09:24:55.702Z,2.19
2023-01-13T09:27:23.147Z,2.14
2023-01-13T09:29:50.395Z,2.20
2023-01-13T09:32:17.488Z,2.27
2023-01-13T09:34:59.391Z,2.30
2023-01-13T09:37:33.621Z,2.37
2023-01-13T09:40:03.061Z,2.32
2023-01-13T09:42:48.314Z,2.24
2023-01-13T09:45:35.230Z,1.83
2023-01-13T09:48:34.599Z,1.78
2023-01-13T09:51:30.112Z,2.03
2023-01-13T09:54:16.754Z,1.96
2023-01-13T09:56:43.843Z,2.13
2023-01-13T09:59:12.158Z,2.34
2023-01-13T10:02:12.910Z,2.51
2023-01-13T10:04:40.091Z,2.76
2023-01-13T10:07:14.471Z,3.00
2023-01-13T10:10:13.076Z,3.11
2023-01-13T10:12:59.287Z,3.10
2023-01-13T10:15:26.807Z,2.97
2023-01-13T10:18:05.241Z,2.82
2023-01-13T10:20:59.799Z,2.65
2023-01-13T10:24:01.033Z,2.55
2023-01-13T10:26:55.380Z,2.43
2023-01-13T10:29:28.807Z,2.38
2023-01-13T10:31:58.873Z,2.40
2023-01-13T10:34:27.832Z,2.35
2023-01-13T10:37:08.052Z,2.33
2023-01-13T10:39:41.742Z,2.39
2023-01-13T10:42:18.655Z,2.38
2023-01-13T10:45:00.078Z,2.30
2023-01-13T10:47:34.050Z,2.23
2023-01-13T10:50:13.132Z,2.27
2023-01-13T10:52:59.466Z,2.25
2023-01-13T10:55:38.021Z,2.31
2023-01-13T10:58:18.715Z,2.45
2023-01-13T11:00:46.901Z,2.53
2023-01-13T11:03:24.242Z,2.43
2023-01-13T11:05:59.707Z,2.10
2023-01-13T11:08:42.679Z,1.98
2023-01-13T11:11:42.285Z,1.93
2023-01-13T11:14:44.964Z,1.94
2023-01-13T11:17:48.169Z,1.94
2023-01-13T11:20:31.222Z,1.93
2023-01-13T11:23:07.796Z,1.90
2023-01-13T11:25:42.678Z,1.97
2023-01-13T11:28:38.097Z,1.89
2023-01-13T11:31:18.104Z,1.84
2023-01-13T11:33:56.488Z,1.76
2023-01-13T11:36:50.846Z,1.74
2023-01-13T11:39:55.717Z,1.72
2023-01-13T11:42:53.649Z,1.65
2023-01-13T11:45:50.113Z,1.67
2023-01-13T11:48:26.440Z,1.69
2023-01-13T11:51:14.562Z,1.69
2023-01-13T11:54:23.761Z,1.70
2023-01-13T11:57:11.866Z,1.80
2023-01-13T12:00:02.973Z,1.93
2023-01-13T12:03:37.527Z,2.01
2023-01-13T12:06:16.439Z,1.99
2023-01-13T12:09:11.418Z,2.05
2023-01-13T12:12:08.863Z,2.06
2023-01-13T12:14:42.384Z,2.08
2023-01-13T12:17:29.671Z,2.06
2023-01-13T12:19:56.895Z,2.04
2023-01-13T12:22:30.196Z,2.05
2023-01-13T12:25:17.582Z,2.06
2023-01-13T12:28:13.123Z,2.00
2023-01-13T12:30:50.142Z,1.98
2023-01-13T12:33:54.407Z,2.07
2023-01-13T12:36:39.013Z,2.04
2023-01-13T12:39:11.732Z,1.94
2023-01-13T12:42:16.192Z,1.91
2023-01-13T12:45:11.148Z,1.81
2023-01-13T12:47:44.983Z,1.72
2023-01-13T12:50:24.363Z,1.71
2023-01-13T12:52:54.417Z,1.68
2023-01-13T12:55:22.990Z,1.69
2023-01-13T12:58:15.861Z,1.65
2023-01-13T13:00:44.256Z,1.59
2023-01-13T13:03:11.702Z,1.51
2023-01-13T13:05:48.304Z,1.48
2023-01-13T13:08:37.320Z,1.41
2023-01-13T13:11:31.792Z,1.36
2023-01-13T13:14:12.290Z,1.39
2023-01-13T13:16:51.459Z,1.35
2023-01-13T13:19:19.442Z,1.32
2023-01-13T13:22:12.640Z,1.31
2023-01-13T13:24:42.591Z,1.25
2023-01-13T13:27:51.508Z,1.17
2023-01-13T13:30:36.384Z,1.10
2023-01-13T13:33:38.449Z,1.05
2023-01-13T13:36:51.091Z,1.05
2023-01-13T13:39:49.298Z,0.99
2023-01-13T13:42:35.234Z,0.96
2023-01-13T13:45:37.423Z,0.84
2023-01-13T13:48:30.112Z,0.82
2023-01-13T13:51:02.357Z,0.77
2023-01-13T13:53:47.710Z,0.77
2023-01-13T13:56:20.256Z,0.79
2023-01-13T13:58:49.001Z,0.81
2023-01-13T14:01:28.143Z,0.81
2023-01-13T14:04:17.993Z,0.76
2023-01-13T14:07:15.573Z,0.70
2023-01-13T14:09:48.300Z,0.67
2023-01-13T14:12:24.103Z,0.61
2023-01-13T14:14:51.774Z,0.59
2023-01-13T14:17:29.182Z,0.59
2023-01-13T14:20:04.362Z,0.57
2023-01-13T14:22:32.324Z,0.54
2023-01-13T14:25:01.348Z,0.49
2023-01-13T14:27:30.322Z,0.45
2023-01-13T14:30:00.571Z,0.45
2023-01-13T14:32:37.474Z,0.42
2023-01-13T14:35:08.309Z,0.41
2023-01-13T14:37:40.514Z,0.39
2023-01-13T14:40:32.378Z,0.40
2023-01-13T14:43:00.647Z,0.38
2023-01-13T14:45:27.937Z,0.34
2023-01-13T14:47:57.410Z,0.32
2023-01-13T14:50:31.022Z,0.33
2023-01-13T14:53:00.181Z,0.36
2023-01-13T14:55:37.968Z,0.42
2023-01-13T14:58:31.459Z,0.48
2023-01-13T15:01:35.554Z,0.53
2023-01-13T15:04:25.792Z,0.54
2023-01-13T15:06:56.594Z,0.51
2023-01-13T15:09:28.867Z,0.48
2023-01-13T15:11:58.203Z,0.48
2023-01-13T15:14:33.870Z,0.50
2023-01-13T15:17:02.399Z,0.47
2023-01-13T15:19:29.433Z,0.49
2023-01-13T15:21:56.559Z,0.50
2023-01-13T15:24:23.591Z,0.51
2023-01-13T15:26:51.674Z,0.44
2023-01-13T15:29:19.481Z,0.39
2023-01-13T15:31:46.613Z,0.39
2023-01-13T15:34:13.736Z,0.39
2023-01-13T15:36:40.986Z,0.40
2023-01-13T15:39:12.637Z,0.43
2023-01-13T15:41:58.119Z,0.45
2023-01-13T15:44:43.313Z,0.51
2023-01-13T15:47:10.645Z,0.49
2023-01-13T15:49:45.144Z,0.49
2023-01-13T15:52:24.857Z,0.53
2023-01-13T15:54:53.574Z,0.58
2023-01-13T15:57:25.000Z,0.62
2023-01-13T15:59:56.192Z,0.62
2023-01-13T16:02:24.755Z,0.56
2023-01-13T16:04:53.424Z,0.47
2023-01-13T16:07:23.213Z,0.42
2023-01-13T16:09:50.356Z,0.39
2023-01-13T16:12:17.569Z,0.43
2023-01-13T16:14:44.701Z,0.51
2023-01-13T16:17:24.777Z,0.56
2023-01-13T16:19:51.907Z,0.60
2023-01-13T16:22:19.021Z,0.57
2023-01-13T16:24:46.316Z,0.58
2023-01-13T16:27:19.924Z,0.44
2023-01-13T16:29:48.663Z,0.40
2023-01-13T16:32:16.426Z,0.42
2023-01-13T16:34:43.954Z,0.41
2023-01-13T16:37:24.171Z,0.38
2023-01-13T16:39:52.839Z,0.38
2023-01-13T16:42:21.169Z,0.31
2023-01-13T16:44:49.219Z,0.36
2023-01-13T16:47:17.815Z,0.38
2023-01-13T16:49:45.465Z,0.40
2023-01-13T16:52:12.724Z,0.42
2023-01-13T16:54:39.951Z,0.45
2023-01-13T16:57:10.320Z,0.42
2023-01-13T16:59:37.421Z,0.46
2023-01-13T17:02:11.030Z,0.48
2023-01-13T17:04:38.259Z,0.48
2023-01-13T17:07:07.818Z,0.46
2023-01-13T17:09:35.001Z,0.47
2023-01-13T17:12:02.192Z,0.50
2023-01-13T17:14:29.395Z,0.50
2023-01-13T17:16:57.548Z,0.52
2023-01-13T17:19:25.300Z,0.50
2023-01-13T17:21:53.031Z,0.54
2023-01-13T17:24:20.626Z,0.56
2023-01-13T17:26:50.476Z,0.60
2023-01-13T17:29:24.641Z,0.63
2023-01-13T17:31:52.187Z,0.62
2023-01-13T17:34:20.584Z,0.61
2023-01-13T17:36:48.615Z,0.62
2023-01-13T17:39:23.867Z,0.67
2023-01-13T17:41:55.476Z,0.70
2023-01-13T17:44:23.016Z,0.72
2023-01-13T17:46:50.350Z,0.68
2023-01-13T17:49:20.728Z,0.65
2023-01-13T17:51:51.023Z,0.63
2023-01-13T17:54:19.082Z,0.63
2023-01-13T17:56:46.870Z,0.61
2023-01-13T17:59:16.771Z,0.58
2023-01-13T18:01:44.994Z,0.52
2023-01-13T18:04:24.131Z,0.44
2023-01-13T18:06:51.365Z,0.39
2023-01-13T18:09:18.742Z,0.37
2023-01-13T18:11:47.213Z,0.36
2023-01-13T18:14:15.537Z,0.37
2023-01-13T18:16:43.360Z,0.37
2023-01-13T18:19:29.074Z,0.35
2023-01-13T18:22:14.735Z,0.31
2023-01-13T18:25:00.445Z,0.29
2023-01-13T18:27:35.201Z,0.31
2023-01-13T18:30:04.665Z,0.33
2023-01-13T18:32:33.331Z,0.38
2023-01-13T18:35:09.230Z,0.40
2023-01-13T18:37:39.912Z,0.43
2023-01-13T18:40:10.089Z,0.43
2023-01-13T18:42:58.897Z,0.44
2023-01-13T18:45:29.946Z,0.41
2023-01-13T18:48:01.190Z,0.38
2023-01-13T18:50:29.656Z,0.36
2023-01-13T18:52:57.197Z,0.38
2023-01-13T18:55:24.779Z,0.42
2023-01-13T18:57:52.879Z,0.47
2023-01-13T19:00:21.811Z,0.46
2023-01-13T19:05:35.236Z,0.47
2023-01-13T19:08:03.938Z,0.54
2023-01-13T19:10:31.946Z,0.58
2023-01-13T19:13:00.655Z,0.59
2023-01-13T19:15:27.870Z,0.61
2023-01-13T19:17:55.101Z,0.60
2023-01-13T19:20:22.167Z,0.57
2023-01-13T19:22:53.663Z,0.49
2023-01-13T19:25:21.120Z,0.50
2023-01-13T19:27:48.297Z,0.52
2023-01-13T19:30:16.772Z,0.57
2023-01-13T19:32:43.916Z,0.59
2023-01-13T19:35:12.524Z,0.59
2023-01-13T19:37:39.877Z,0.60
2023-01-13T19:40:09.194Z,0.59
2023-01-13T19:42:55.064Z,0.62
2023-01-13T19:45:30.074Z,0.63
2023-01-13T19:48:04.209Z,0.64
2023-01-13T19:50:34.610Z,0.64
2023-01-13T19:53:01.844Z,0.64
2023-01-13T19:55:31.212Z,0.62
2023-01-13T19:57:58.387Z,0.59
2023-01-13T20:00:25.512Z,0.57
2023-01-13T20:02:52.689Z,0.56
2023-01-13T20:05:23.848Z,0.59
2023-01-13T20:07:51.423Z,0.62
2023-01-13T20:10:20.356Z,0.68
2023-01-13T20:12:48.054Z,0.72
2023-01-13T20:15:15.554Z,0.72
2023-01-13T20:17:42.833Z,0.71
2023-01-13T20:20:11.395Z,0.68
2023-01-13T20:22:39.579Z,0.67
2023-01-13T20:25:08.964Z,0.69
2023-01-13T20:27:36.264Z,0.69
2023-01-13T20:30:05.893Z,0.69
2023-01-13T20:32:33.056Z,0.70
2023-01-13T20:35:00.187Z,0.74
2023-01-13T20:37:27.298Z,0.73
2023-01-13T20:39:56.866Z,0.69
2023-01-13T20:42:31.008Z,0.67
2023-01-13T20:44:59.205Z,0.69
2023-01-13T20:47:29.824Z,0.73
2023-01-13T20:49:58.495Z,0.73
2023-01-13T20:52:25.945Z,0.76
2023-01-13T20:54:52.997Z,0.75
2023-01-13T20:57:20.136Z,0.74
2023-01-13T20:59:47.298Z,0.71
2023-01-13T21:02:16.334Z,0.68
2023-01-13T21:04:43.760Z,0.69
2023-01-13T21:07:11.287Z,0.70
2023-01-13T21:09:38.434Z,0.74
2023-01-13T21:12:24.751Z,0.79
2023-01-13T21:15:10.440Z,0.79
2023-01-13T21:17:56.360Z,0.74
2023-01-13T21:20:23.634Z,0.70
2023-01-13T21:22:50.776Z,0.70
2023-01-13T21:25:18.715Z,0.72
2023-01-13T21:27:45.891Z,0.76
2023-01-13T21:30:16.423Z,0.79
2023-01-13T21:32:45.045Z,0.82
2023-01-13T21:35:13.607Z,0.82
2023-01-13T21:37:42.908Z,0.81
2023-01-13T21:40:13.465Z,0.83
2023-01-13T21:42:59.366Z,0.82
2023-01-13T21:45:45.279Z,0.81
2023-01-13T21:48:12.578Z,0.83
2023-01-13T21:50:39.776Z,0.84
2023-01-13T21:53:07.449Z,0.82
2023-01-13T21:55:36.127Z,0.80
2023-01-13T21:58:10.442Z,0.82
2023-01-13T22:00:37.859Z,0.89
2023-01-13T22:03:07.787Z,0.88
2023-01-13T22:05:35.151Z,0.82
2023-01-13T22:08:02.944Z,0.75
2023-01-13T22:10:30.488Z,0.69
2023-01-13T22:13:22.470Z,0.71
2023-01-13T22:15:49.710Z,0.72
2023-01-13T22:18:17.631Z,0.69
2023-01-13T22:20:45.279Z,0.66
2023-01-13T22:23:12.505Z,0.64
2023-01-13T22:25:39.764Z,0.67
2023-01-13T22:28:08.667Z,0.73
2023-01-13T22:30:35.927Z,0.69
2023-01-13T22:33:03.258Z,0.68
2023-01-13T22:35:30.418Z,0.71
2023-01-13T22:37:58.317Z,0.72
2023-01-13T22:40:25.494Z,0.72
2023-01-13T22:42:52.640Z,0.70
2023-01-13T22:45:19.690Z,0.72
2023-01-13T22:47:47.432Z,0.71
2023-01-13T22:50:16.944Z,0.73
2023-01-13T22:52:43.989Z,0.67
2023-01-13T22:55:11.033Z,0.63
2023-01-13T22:57:47.296Z,0.67
2023-01-13T23:00:18.233Z,0.67
2023-01-13T23:02:45.504Z,0.63
2023-01-13T23:05:13.190Z,0.64
2023-01-13T23:07:40.537Z,0.67
2023-01-13T23:10:08.496Z,0.69
2023-01-13T23:12:35.584Z,0.66
2023-01-13T23:15:03.778Z,0.65
2023-01-13T23:17:31.111Z,0.61
2023-01-13T23:19:58.254Z,0.55
2023-01-13T23:22:25.420Z,0.56
2023-01-13T23:24:52.450Z,0.53
2023-01-13T23:27:19.523Z,0.57
2023-01-13T23:29:46.600Z,0.59
2023-01-13T23:32:13.827Z,0.57
2023-01-13T23:34:40.901Z,0.54
2023-01-13T23:37:07.961Z,0.55
2023-01-13T23:39:35.005Z,0.47
2023-01-13T23:42:02.069Z,0.42
2023-01-13T23:44:29.169Z,0.48
2023-01-13T23:46:56.517Z,0.55
2023-01-13T23:49:23.706Z,0.56
2023-01-13T23:51:51.559Z,0.54
2023-01-13T23:54:19.387Z,0.53
2023-01-13T23:56:49.119Z,0.57
2023-01-13T23:59:16.171Z,0.57
